createdAt,value
2018-05-18T00:00:33.888Z,20.53
2018-05-18T00:01:33.881Z,20.54
2018-05-18T00:02:33.872Z,20.60
2018-05-18T00:03:33.866Z,20.56
2018-05-18T00:04:33.857Z,20.58
2018-05-18T00:05:33.854Z,20.48
2018-05-18T00:06:33.843Z,20.60
2018-05-18T00:07:33.835Z,20.57
2018-05-18T00:08:33.828Z,20.56
2018-05-18T00:09:33.819Z,20.53
2018-05-18T00:10:33.811Z,20.48
2018-05-18T00:11:33.804Z,20.53
2018-05-18T00:12:33.796Z,20.57
2018-05-18T00:13:33.789Z,20.56
2018-05-18T00:14:33.780Z,20.50
2018-05-18T00:15:33.773Z,20.53
2018-05-18T00:16:33.765Z,20.50
2018-05-18T00:17:33.763Z,20.42
2018-05-18T00:18:33.749Z,20.37
2018-05-18T00:19:33.741Z,20.46
2018-05-18T00:20:33.738Z,20.46
2018-05-18T00:21:33.728Z,20.33
2018-05-18T00:22:33.720Z,20.41
2018-05-18T00:23:33.711Z,20.46
2018-05-18T00:24:33.704Z,20.44
2018-05-18T00:25:33.696Z,20.56
2018-05-18T00:26:33.689Z,20.50
2018-05-18T00:27:33.681Z,20.50
2018-05-18T00:28:33.674Z,20.51
2018-05-18T00:29:33.669Z,20.44
2018-05-18T00:30:33.655Z,20.56
2018-05-18T00:31:33.650Z,20.50
2018-05-18T00:32:33.643Z,20.54
2018-05-18T00:33:33.635Z,20.57
2018-05-18T00:34:33.689Z,20.50
2018-05-18T00:35:33.619Z,20.56
2018-05-18T00:36:33.611Z,20.50
2018-05-18T00:37:33.603Z,20.50
2018-05-18T00:38:33.595Z,20.41
2018-05-18T00:39:33.586Z,20.40
2018-05-18T00:40:33.583Z,20.51
2018-05-18T00:41:33.577Z,20.56
2018-05-18T00:42:33.575Z,20.56
2018-05-18T00:43:33.558Z,20.53
2018-05-18T00:44:33.549Z,20.56
2018-05-18T00:45:33.543Z,20.51
2018-05-18T00:46:33.532Z,20.53
2018-05-18T00:47:33.526Z,20.54
2018-05-18T00:48:33.518Z,20.57
2018-05-18T00:49:33.510Z,20.56
2018-05-18T00:50:33.501Z,20.60
2018-05-18T00:51:33.494Z,20.53
2018-05-18T00:52:33.487Z,20.60
2018-05-18T00:53:33.480Z,20.66
2018-05-18T00:54:33.472Z,20.61
2018-05-18T00:55:33.468Z,20.63
2018-05-18T00:56:33.460Z,20.64
2018-05-18T00:57:33.448Z,20.68
2018-05-18T00:58:33.444Z,20.64
2018-05-18T00:59:33.432Z,20.69
2018-05-18T01:00:33.425Z,20.66
2018-05-18T01:01:33.420Z,20.64
2018-05-18T01:02:33.410Z,20.63
2018-05-18T01:03:33.403Z,20.57
2018-05-18T01:04:33.394Z,20.60
2018-05-18T01:05:33.389Z,20.56
2018-05-18T01:06:33.380Z,20.60
2018-05-18T01:07:33.375Z,20.63
2018-05-18T01:08:33.365Z,20.66
2018-05-18T01:09:33.358Z,20.69
2018-05-18T01:10:33.350Z,20.64
2018-05-18T01:11:33.343Z,20.76
2018-05-18T01:12:33.335Z,20.69
2018-05-18T01:13:33.328Z,20.71
2018-05-18T01:14:33.320Z,20.71
2018-05-18T01:15:33.314Z,20.73
2018-05-18T01:16:33.303Z,20.75
2018-05-18T01:17:33.297Z,20.68
2018-05-18T01:18:33.288Z,20.72
2018-05-18T01:19:33.282Z,20.66
2018-05-18T01:20:33.280Z,20.68
2018-05-18T01:21:33.267Z,20.73
2018-05-18T01:22:33.258Z,20.72
2018-05-18T01:23:33.252Z,20.66
2018-05-18T01:24:33.246Z,20.68
2018-05-18T01:25:33.237Z,20.66
2018-05-18T01:26:33.229Z,20.57
2018-05-18T01:27:33.221Z,20.53
2018-05-18T01:28:33.213Z,20.56
2018-05-18T01:29:33.211Z,20.54
2018-05-18T01:30:33.198Z,20.58
2018-05-18T01:31:33.191Z,20.56
2018-05-18T01:32:33.184Z,20.51
2018-05-18T01:33:33.177Z,20.51
2018-05-18T01:34:33.167Z,20.37
2018-05-18T01:35:33.160Z,20.38
2018-05-18T01:36:33.152Z,20.41
2018-05-18T01:37:33.144Z,20.42
2018-05-18T01:38:33.137Z,20.35
2018-05-18T01:39:33.129Z,20.38
2018-05-18T01:40:33.126Z,20.37
2018-05-18T01:41:33.114Z,20.31
2018-05-18T01:42:33.106Z,20.33
2018-05-18T01:43:33.099Z,20.33
2018-05-18T01:44:33.091Z,20.38
2018-05-18T01:45:33.084Z,20.31
2018-05-18T01:46:33.076Z,20.34
2018-05-18T01:47:33.066Z,20.27
2018-05-18T01:48:33.066Z,20.31
2018-05-18T01:49:33.053Z,20.33
2018-05-18T01:50:33.043Z,20.34
2018-05-18T01:51:33.035Z,20.34
2018-05-18T01:52:33.029Z,20.38
2018-05-18T01:53:33.021Z,20.44
2018-05-18T01:54:33.012Z,20.37
2018-05-18T01:55:33.004Z,20.33
2018-05-18T01:56:32.997Z,20.17
2018-05-18T01:57:32.993Z,20.17
2018-05-18T01:58:32.980Z,20.16
2018-05-18T01:59:32.973Z,20.23
2018-05-18T02:00:32.967Z,20.16
2018-05-18T02:01:32.959Z,20.17
2018-05-18T02:02:32.949Z,20.20
2018-05-18T02:03:32.941Z,20.22
2018-05-18T02:04:32.935Z,20.23
2018-05-18T02:05:32.927Z,20.22
2018-05-18T02:06:32.918Z,20.20
2018-05-18T02:07:32.910Z,20.19
2018-05-18T02:08:32.903Z,20.33
2018-05-18T02:09:32.899Z,20.37
2018-05-18T02:10:32.888Z,20.38
2018-05-18T02:11:32.880Z,20.33
2018-05-18T02:12:32.875Z,20.25
2018-05-18T02:13:32.870Z,20.31
2018-05-18T02:14:32.858Z,20.30
2018-05-18T02:15:32.848Z,20.34
2018-05-18T02:16:32.840Z,20.35
2018-05-18T02:17:32.834Z,20.34
2018-05-18T02:18:32.827Z,20.35
2018-05-18T02:19:32.818Z,20.33
2018-05-18T02:20:32.811Z,20.41
2018-05-18T02:21:32.803Z,20.33
2018-05-18T02:22:32.795Z,20.37
2018-05-18T02:23:32.786Z,20.40
2018-05-18T02:24:32.778Z,20.34
2018-05-18T02:25:32.773Z,20.40
2018-05-18T02:26:32.762Z,20.33
2018-05-18T02:27:32.757Z,20.34
2018-05-18T02:28:32.747Z,20.33
2018-05-18T02:29:32.745Z,20.41
2018-05-18T02:30:32.731Z,20.34
2018-05-18T02:31:32.725Z,20.34
2018-05-18T02:32:32.724Z,20.22
2018-05-18T02:33:32.710Z,20.16
2018-05-18T02:34:32.701Z,20.16
2018-05-18T02:35:32.899Z,20.26
2018-05-18T02:36:32.685Z,20.19
2018-05-18T02:37:32.684Z,20.15
2018-05-18T02:38:32.668Z,20.19
2018-05-18T02:39:32.662Z,20.17
2018-05-18T02:40:32.654Z,20.07
2018-05-18T02:41:32.649Z,20.05
2018-05-18T02:42:32.638Z,20.10
2018-05-18T02:43:32.630Z,20.16
2018-05-18T02:44:32.625Z,20.20
2018-05-18T02:45:32.614Z,20.19
2018-05-18T02:46:32.608Z,20.08
2018-05-18T02:47:32.600Z,20.15
2018-05-18T02:48:32.590Z,20.12
2018-05-18T02:49:32.582Z,20.13
2018-05-18T02:50:32.575Z,20.12
2018-05-18T02:51:32.568Z,20.02
2018-05-18T02:52:32.560Z,20.08
2018-05-18T02:53:32.552Z,20.13
2018-05-18T02:54:32.543Z,20.10
2018-05-18T02:55:32.535Z,20.08
2018-05-18T02:56:32.529Z,20.05
2018-05-18T02:57:32.521Z,20.07
2018-05-18T02:58:32.514Z,20.02
2018-05-18T02:59:32.503Z,20.13
2018-05-18T03:00:32.497Z,20.08
2018-05-18T03:01:32.488Z,20.13
2018-05-18T03:02:32.488Z,20.15
2018-05-18T03:03:32.477Z,20.10
2018-05-18T03:04:32.468Z,20.07
2018-05-18T03:05:32.466Z,20.08
2018-05-18T03:06:32.454Z,20.12
2018-05-18T03:07:32.445Z,20.10
2018-05-18T03:08:32.547Z,20.07
2018-05-18T03:09:32.434Z,20.07
2018-05-18T03:10:32.422Z,20.05
2018-05-18T03:11:32.414Z,19.90
2018-05-18T03:12:32.407Z,20.01
2018-05-18T03:13:32.401Z,19.92
2018-05-18T03:14:32.389Z,19.95
2018-05-18T03:15:32.382Z,19.94
2018-05-18T03:16:32.375Z,20.05
2018-05-18T03:17:32.369Z,20.05
2018-05-18T03:18:32.357Z,20.04
2018-05-18T03:19:32.353Z,20.07
2018-05-18T03:20:32.342Z,19.97
2018-05-18T03:21:32.335Z,20.02
2018-05-18T03:22:32.325Z,20.00
2018-05-18T03:23:32.321Z,19.95
2018-05-18T03:24:32.310Z,20.05
2018-05-18T03:25:32.303Z,20.08
2018-05-18T03:26:32.293Z,19.95
2018-05-18T03:27:32.286Z,19.92
2018-05-18T03:28:32.278Z,20.01
2018-05-18T03:29:32.271Z,20.00
2018-05-18T03:30:32.262Z,19.98
2018-05-18T03:31:32.254Z,20.02
2018-05-18T03:32:32.250Z,20.00
2018-05-18T03:33:32.238Z,19.94
2018-05-18T03:34:32.230Z,19.97
2018-05-18T03:35:32.422Z,19.83
2018-05-18T03:36:32.213Z,20.00
2018-05-18T03:37:32.207Z,19.97
2018-05-18T03:38:32.198Z,19.83
2018-05-18T03:39:32.190Z,19.97
2018-05-18T03:40:32.186Z,19.92
2018-05-18T03:41:32.174Z,19.80
2018-05-18T03:42:32.167Z,19.87
2018-05-18T03:43:32.158Z,19.83
2018-05-18T03:44:32.151Z,19.86
2018-05-18T03:45:32.143Z,19.78
2018-05-18T03:46:32.136Z,19.86
2018-05-18T03:47:32.126Z,19.86
2018-05-18T03:48:32.118Z,19.80
2018-05-18T03:49:32.110Z,19.79
2018-05-18T03:50:32.100Z,19.82
2018-05-18T03:51:32.093Z,19.80
2018-05-18T03:52:32.085Z,19.80
2018-05-18T03:53:32.076Z,19.79
2018-05-18T03:54:32.067Z,19.75
2018-05-18T03:55:32.060Z,19.79
2018-05-18T03:56:32.051Z,19.72
2018-05-18T03:57:32.044Z,19.83
2018-05-18T03:58:32.036Z,19.87
2018-05-18T03:59:32.027Z,19.83
2018-05-18T04:00:32.019Z,19.85
2018-05-18T04:01:32.011Z,19.83
2018-05-18T04:02:32.001Z,19.89
2018-05-18T04:03:31.994Z,19.75
2018-05-18T04:04:31.985Z,19.82
2018-05-18T04:05:31.978Z,19.87
2018-05-18T04:06:31.969Z,19.85
2018-05-18T04:07:31.962Z,19.82
2018-05-18T04:08:31.953Z,19.79
2018-05-18T04:09:31.985Z,19.86
2018-05-18T04:10:31.935Z,19.86
2018-05-18T04:11:31.929Z,19.86
2018-05-18T04:12:31.920Z,19.83
2018-05-18T04:13:31.913Z,19.87
2018-05-18T04:14:31.903Z,19.85
2018-05-18T04:15:31.897Z,19.86
2018-05-18T04:16:31.888Z,19.83
2018-05-18T04:17:31.881Z,19.82
2018-05-18T04:18:31.872Z,19.80
2018-05-18T04:19:31.864Z,19.79
2018-05-18T04:20:31.855Z,19.87
2018-05-18T04:21:31.850Z,19.83
2018-05-18T04:22:31.838Z,19.85
2018-05-18T04:23:31.832Z,19.92
2018-05-18T04:24:31.823Z,19.85
2018-05-18T04:25:31.816Z,19.79
2018-05-18T04:26:31.807Z,19.85
2018-05-18T04:27:31.801Z,19.82
2018-05-18T04:28:31.791Z,19.94
2018-05-18T04:29:31.781Z,19.95
2018-05-18T04:30:31.797Z,19.82
2018-05-18T04:31:31.765Z,19.87
2018-05-18T04:32:31.759Z,19.85
2018-05-18T04:33:31.755Z,19.79
2018-05-18T04:34:31.741Z,19.85
2018-05-18T04:35:31.734Z,19.80
2018-05-18T04:36:31.727Z,19.78
2018-05-18T04:37:31.718Z,19.68
2018-05-18T04:38:31.710Z,19.80
2018-05-18T04:39:31.702Z,19.76
2018-05-18T04:40:31.692Z,19.80
2018-05-18T04:41:31.886Z,19.70
2018-05-18T04:42:31.680Z,19.80
2018-05-18T04:43:31.669Z,19.68
2018-05-18T04:44:31.661Z,19.67
2018-05-18T04:45:31.652Z,19.76
2018-05-18T04:46:31.645Z,19.70
2018-05-18T04:47:31.626Z,19.70
2018-05-18T04:48:31.618Z,19.76
2018-05-18T04:49:31.610Z,19.78
2018-05-18T04:50:31.679Z,19.65
2018-05-18T04:51:31.595Z,19.72
2018-05-18T04:52:31.587Z,19.65
2018-05-18T04:53:31.579Z,19.65
2018-05-18T04:54:31.570Z,19.79
2018-05-18T04:55:31.561Z,19.82
2018-05-18T04:56:31.552Z,19.75
2018-05-18T04:57:31.546Z,19.72
2018-05-18T04:58:31.535Z,19.72
2018-05-18T04:59:31.527Z,19.64
2018-05-18T05:00:31.521Z,19.67
2018-05-18T05:01:31.512Z,19.65
2018-05-18T05:02:31.502Z,19.61
2018-05-18T05:03:31.496Z,19.57
2018-05-18T05:04:31.486Z,19.52
2018-05-18T05:05:31.518Z,19.53
2018-05-18T05:06:31.473Z,19.47
2018-05-18T05:07:31.461Z,19.57
2018-05-18T05:08:31.453Z,19.55
2018-05-18T05:09:31.444Z,19.52
2018-05-18T05:10:31.435Z,19.55
2018-05-18T05:11:31.631Z,19.53
2018-05-18T05:12:31.459Z,19.61
2018-05-18T05:13:31.411Z,19.61
2018-05-18T05:14:31.401Z,19.53
2018-05-18T05:15:31.394Z,19.60
2018-05-18T05:16:31.387Z,19.58
2018-05-18T05:17:31.377Z,19.60
2018-05-18T05:18:31.369Z,19.55
2018-05-18T05:19:31.368Z,19.52
2018-05-18T05:20:31.352Z,19.55
2018-05-18T05:21:31.346Z,19.53
2018-05-18T05:22:31.334Z,19.58
2018-05-18T05:23:31.326Z,19.58
2018-05-18T05:24:31.318Z,19.58
2018-05-18T05:25:31.310Z,19.61
2018-05-18T05:26:31.300Z,19.58
2018-05-18T05:27:31.294Z,19.62
2018-05-18T05:28:31.286Z,19.61
2018-05-18T05:29:31.276Z,19.68
2018-05-18T05:30:31.283Z,19.57
2018-05-18T05:31:31.260Z,19.57
2018-05-18T05:32:31.266Z,19.60
2018-05-18T05:33:31.244Z,19.53
2018-05-18T05:34:31.239Z,19.53
2018-05-18T05:35:31.225Z,19.60
2018-05-18T05:36:31.218Z,19.58
2018-05-18T05:37:31.210Z,19.53
2018-05-18T05:38:31.214Z,19.53
2018-05-18T05:39:31.200Z,19.61
2018-05-18T05:40:31.229Z,19.61
2018-05-18T05:41:31.178Z,19.61
2018-05-18T05:42:31.169Z,19.64
2018-05-18T05:43:31.162Z,19.61
2018-05-18T05:44:31.158Z,19.70
2018-05-18T05:45:31.143Z,19.65
2018-05-18T05:46:31.142Z,19.57
2018-05-18T05:47:31.130Z,19.55
2018-05-18T05:48:31.139Z,19.57
2018-05-18T05:49:31.112Z,19.49
2018-05-18T05:50:31.100Z,19.64
2018-05-18T05:51:31.094Z,19.57
2018-05-18T05:52:31.085Z,19.57
2018-05-18T05:53:31.077Z,19.49
2018-05-18T05:54:31.067Z,19.40
2018-05-18T05:55:31.059Z,19.49
2018-05-18T05:56:31.051Z,19.47
2018-05-18T05:57:31.042Z,19.53
2018-05-18T05:58:31.124Z,19.47
2018-05-18T05:59:31.026Z,19.50
2018-05-18T06:00:31.095Z,19.53
2018-05-18T06:01:31.009Z,19.61
2018-05-18T06:02:31.008Z,19.58
2018-05-18T06:03:30.993Z,19.53
2018-05-18T06:04:30.984Z,19.60
2018-05-18T06:05:30.977Z,19.53
2018-05-18T06:06:30.967Z,19.61
2018-05-18T06:07:30.968Z,19.50
2018-05-18T06:08:30.952Z,19.65
2018-05-18T06:09:30.943Z,19.53
2018-05-18T06:10:30.940Z,19.57
2018-05-18T06:11:30.925Z,19.55
2018-05-18T06:12:30.919Z,19.57
2018-05-18T06:13:30.909Z,19.47
2018-05-18T06:14:30.901Z,19.45
2018-05-18T06:15:30.891Z,19.43
2018-05-18T06:16:30.886Z,19.45
2018-05-18T06:17:30.877Z,19.42
2018-05-18T06:18:30.867Z,19.40
2018-05-18T06:19:30.904Z,19.45
2018-05-18T06:20:30.855Z,19.35
2018-05-18T06:21:30.843Z,19.42
2018-05-18T06:22:30.834Z,19.43
2018-05-18T06:23:30.828Z,19.57
2018-05-18T06:24:30.818Z,19.47
2018-05-18T06:25:30.810Z,19.52
2018-05-18T06:26:30.800Z,19.53
2018-05-18T06:27:30.791Z,19.57
2018-05-18T06:28:30.784Z,19.43
2018-05-18T06:29:30.975Z,19.50
2018-05-18T06:30:30.766Z,19.45
2018-05-18T06:31:30.758Z,19.46
2018-05-18T06:32:30.751Z,19.38
2018-05-18T06:33:30.741Z,19.35
2018-05-18T06:34:30.733Z,19.32
2018-05-18T06:35:30.726Z,19.34
2018-05-18T06:36:30.717Z,19.30
2018-05-18T06:37:30.709Z,19.31
2018-05-18T06:38:30.699Z,19.32
2018-05-18T06:39:30.691Z,19.34
2018-05-18T06:40:30.691Z,19.42
2018-05-18T06:41:30.675Z,19.35
2018-05-18T06:42:30.682Z,19.38
2018-05-18T06:43:30.661Z,19.40
2018-05-18T06:44:30.652Z,19.43
2018-05-18T06:45:30.639Z,19.39
2018-05-18T06:46:30.639Z,19.35
2018-05-18T06:47:30.623Z,19.34
2018-05-18T06:48:30.628Z,19.35
2018-05-18T06:49:30.635Z,19.32
2018-05-18T06:50:30.610Z,19.38
2018-05-18T06:51:30.591Z,19.38
2018-05-18T06:52:30.667Z,19.34
2018-05-18T06:53:30.571Z,19.28
2018-05-18T06:54:30.567Z,19.34
2018-05-18T06:55:30.555Z,19.31
2018-05-18T06:56:30.547Z,19.34
2018-05-18T06:57:30.537Z,19.31
2018-05-18T06:58:30.528Z,19.34
2018-05-18T06:59:30.520Z,19.24
2018-05-18T07:00:30.511Z,19.27
2018-05-18T07:01:30.510Z,19.32
2018-05-18T07:02:30.494Z,19.34
2018-05-18T07:03:30.486Z,19.31
2018-05-18T07:04:30.477Z,19.42
2018-05-18T07:05:30.470Z,19.27
2018-05-18T07:06:30.460Z,19.34
2018-05-18T07:07:30.452Z,19.38
2018-05-18T07:08:30.443Z,19.34
2018-05-18T07:09:30.436Z,19.38
2018-05-18T07:10:30.458Z,19.30
2018-05-18T07:11:30.618Z,19.31
2018-05-18T07:12:30.410Z,19.35
2018-05-18T07:13:30.403Z,19.32
2018-05-18T07:14:30.391Z,19.31
2018-05-18T07:15:30.389Z,19.34
2018-05-18T07:16:30.391Z,19.28
2018-05-18T07:17:30.568Z,19.30
2018-05-18T07:18:30.360Z,19.32
2018-05-18T07:19:30.350Z,19.31
2018-05-18T07:20:30.342Z,19.30
2018-05-18T07:21:30.335Z,19.30
2018-05-18T07:22:30.324Z,19.34
2018-05-18T07:23:30.318Z,19.28
2018-05-18T07:24:30.307Z,19.30
2018-05-18T07:25:30.300Z,19.38
2018-05-18T07:26:30.290Z,19.32
2018-05-18T07:27:30.282Z,19.27
2018-05-18T07:28:30.274Z,19.24
2018-05-18T07:29:30.267Z,19.35
2018-05-18T07:30:30.256Z,19.32
2018-05-18T07:31:30.248Z,19.31
2018-05-18T07:32:30.239Z,19.27
2018-05-18T07:33:30.231Z,19.27
2018-05-18T07:34:30.222Z,19.15
2018-05-18T07:35:30.213Z,19.23
2018-05-18T07:36:30.207Z,19.25
2018-05-18T07:37:30.200Z,19.28
2018-05-18T07:38:30.188Z,19.27
2018-05-18T07:39:30.184Z,19.20
2018-05-18T07:40:30.173Z,19.21
2018-05-18T07:41:30.163Z,19.17
2018-05-18T07:42:30.154Z,19.07
2018-05-18T07:43:30.145Z,18.97
2018-05-18T07:44:30.137Z,19.01
2018-05-18T07:45:30.135Z,19.07
2018-05-18T07:46:30.119Z,19.06
2018-05-18T07:47:30.112Z,18.96
2018-05-18T07:48:30.102Z,19.12
2018-05-18T07:49:30.094Z,19.02
2018-05-18T07:50:30.085Z,19.05
2018-05-18T07:51:30.076Z,19.01
2018-05-18T07:52:30.069Z,19.09
2018-05-18T07:53:30.151Z,18.94
2018-05-18T07:54:30.051Z,19.07
2018-05-18T07:55:30.042Z,18.96
2018-05-18T07:56:30.034Z,19.10
2018-05-18T07:57:30.026Z,19.13
2018-05-18T07:58:30.016Z,19.05
2018-05-18T07:59:30.095Z,19.09
2018-05-18T08:00:30.001Z,19.07
2018-05-18T08:01:29.991Z,19.05
2018-05-18T08:02:29.982Z,19.09
2018-05-18T08:03:29.973Z,18.97
2018-05-18T08:04:29.966Z,19.05
2018-05-18T08:05:29.956Z,19.07
2018-05-18T08:06:29.947Z,19.09
2018-05-18T08:07:29.940Z,19.06
2018-05-18T08:08:29.931Z,19.10
2018-05-18T08:09:29.923Z,18.96
2018-05-18T08:10:29.913Z,19.10
2018-05-18T08:11:29.904Z,19.01
2018-05-18T08:12:29.898Z,19.05
2018-05-18T08:13:29.891Z,19.01
2018-05-18T08:14:29.877Z,19.09
2018-05-18T08:15:29.869Z,19.13
2018-05-18T08:16:29.888Z,19.10
2018-05-18T08:17:29.852Z,19.09
2018-05-18T08:18:29.844Z,19.12
2018-05-18T08:19:29.836Z,19.10
2018-05-18T08:20:29.827Z,19.09
2018-05-18T08:21:29.873Z,19.12
2018-05-18T08:22:29.809Z,19.02
2018-05-18T08:23:29.801Z,19.09
2018-05-18T08:24:29.793Z,19.05
2018-05-18T08:25:29.783Z,19.05
2018-05-18T08:26:29.774Z,19.10
2018-05-18T08:27:29.765Z,19.02
2018-05-18T08:28:29.757Z,19.05
2018-05-18T08:29:29.750Z,19.06
2018-05-18T08:30:29.739Z,19.05
2018-05-18T08:31:29.731Z,19.12
2018-05-18T08:32:29.723Z,19.09
2018-05-18T08:33:29.714Z,18.96
2018-05-18T08:34:29.705Z,19.13
2018-05-18T08:35:29.696Z,19.13
2018-05-18T08:36:29.688Z,19.07
2018-05-18T08:37:29.679Z,19.15
2018-05-18T08:38:29.670Z,19.07
2018-05-18T08:39:29.661Z,19.12
2018-05-18T08:40:29.655Z,18.99
2018-05-18T08:41:29.646Z,18.97
2018-05-18T08:42:29.637Z,19.09
2018-05-18T08:43:29.686Z,19.07
2018-05-18T08:44:29.685Z,19.06
2018-05-18T08:45:29.611Z,19.02
2018-05-18T08:46:29.602Z,18.99
2018-05-18T08:47:29.594Z,19.02
2018-05-18T08:48:29.588Z,19.06
2018-05-18T08:49:29.588Z,19.05
2018-05-18T08:50:29.617Z,19.10
2018-05-18T08:51:29.558Z,19.15
2018-05-18T08:52:29.551Z,19.13
2018-05-18T08:53:29.695Z,19.10
2018-05-18T08:54:29.532Z,19.15
2018-05-18T08:55:29.528Z,19.13
2018-05-18T08:56:29.514Z,19.13
2018-05-18T08:57:29.506Z,19.17
2018-05-18T08:58:29.500Z,19.12
2018-05-18T08:59:29.490Z,19.23
2018-05-18T09:00:29.539Z,19.16
2018-05-18T09:01:29.472Z,19.12
2018-05-18T09:02:29.462Z,19.10
2018-05-18T09:03:29.454Z,19.15
2018-05-18T09:04:29.446Z,19.09
2018-05-18T09:05:29.437Z,19.02
2018-05-18T09:06:29.429Z,19.05
2018-05-18T09:07:29.419Z,19.07
2018-05-18T09:08:29.414Z,19.07
2018-05-18T09:09:29.406Z,19.05
2018-05-18T09:10:29.393Z,19.09
2018-05-18T09:11:29.384Z,19.07
2018-05-18T09:12:29.377Z,19.12
2018-05-18T09:13:29.368Z,19.12
2018-05-18T09:14:29.360Z,19.02
2018-05-18T09:15:29.351Z,18.94
2018-05-18T09:16:29.348Z,19.01
2018-05-18T09:17:29.335Z,18.97
2018-05-18T09:18:29.325Z,18.93
2018-05-18T09:19:29.317Z,18.97
2018-05-18T09:20:29.307Z,19.02
2018-05-18T09:21:29.298Z,19.02
2018-05-18T09:22:29.291Z,19.02
2018-05-18T09:23:29.282Z,18.99
2018-05-18T09:24:29.275Z,19.02
2018-05-18T09:25:29.265Z,19.05
2018-05-18T09:26:29.309Z,19.01
2018-05-18T09:27:29.245Z,19.09
2018-05-18T09:28:29.237Z,19.06
2018-05-18T09:29:29.230Z,19.10
2018-05-18T09:30:29.220Z,19.02
2018-05-18T09:31:29.216Z,18.90
2018-05-18T09:32:29.202Z,18.89
2018-05-18T09:33:29.195Z,18.90
2018-05-18T09:34:29.184Z,18.79
2018-05-18T09:35:29.177Z,18.79
2018-05-18T09:36:29.168Z,18.90
2018-05-18T09:37:29.158Z,18.90
2018-05-18T09:38:29.149Z,18.87
2018-05-18T09:39:29.140Z,18.87
2018-05-18T09:40:29.131Z,18.87
2018-05-18T09:41:29.123Z,18.86
2018-05-18T09:42:29.113Z,18.89
2018-05-18T09:43:29.106Z,18.86
2018-05-18T09:44:29.096Z,18.90
2018-05-18T09:45:29.090Z,18.86
2018-05-18T09:46:29.077Z,18.83
2018-05-18T09:47:29.068Z,18.96
2018-05-18T09:48:29.061Z,18.94
2018-05-18T09:49:29.056Z,18.93
2018-05-18T09:50:29.048Z,18.96
2018-05-18T09:51:29.038Z,18.94
2018-05-18T09:52:29.024Z,18.89
2018-05-18T09:53:29.020Z,18.96
2018-05-18T09:54:29.041Z,19.02
2018-05-18T09:55:29.193Z,19.02
2018-05-18T09:56:28.990Z,19.12
2018-05-18T09:57:28.982Z,19.09
2018-05-18T09:58:28.971Z,19.07
2018-05-18T09:59:28.964Z,19.01
2018-05-18T10:00:28.953Z,18.97
2018-05-18T10:01:28.945Z,18.90
2018-05-18T10:02:28.935Z,18.91
2018-05-18T10:03:28.928Z,18.83
2018-05-18T10:04:28.918Z,18.79
2018-05-18T10:05:28.911Z,18.87
2018-05-18T10:06:28.900Z,18.90
2018-05-18T10:07:28.891Z,18.89
2018-05-18T10:08:28.883Z,18.89
2018-05-18T10:09:28.874Z,18.93
2018-05-18T10:10:28.864Z,18.96
2018-05-18T10:11:28.857Z,18.84
2018-05-18T10:12:28.932Z,18.91
2018-05-18T10:13:28.839Z,18.86
2018-05-18T10:14:28.830Z,18.87
2018-05-18T10:15:28.820Z,18.99
2018-05-18T10:16:28.811Z,18.93
2018-05-18T10:17:28.803Z,18.99
2018-05-18T10:18:28.849Z,19.10
2018-05-18T10:19:28.783Z,19.01
2018-05-18T10:20:28.779Z,19.05
2018-05-18T10:21:28.767Z,19.12
2018-05-18T10:22:28.756Z,19.13
2018-05-18T10:23:28.749Z,19.10
2018-05-18T10:24:28.740Z,19.12
2018-05-18T10:25:28.730Z,19.16
2018-05-18T10:26:28.720Z,19.23
2018-05-18T10:27:28.712Z,19.30
2018-05-18T10:28:28.703Z,19.32
2018-05-18T10:29:28.696Z,19.27
2018-05-18T10:30:28.685Z,19.12
2018-05-18T10:31:28.677Z,19.13
2018-05-18T10:32:28.672Z,19.16
2018-05-18T10:33:28.660Z,19.16
2018-05-18T10:34:28.655Z,19.16
2018-05-18T10:35:28.641Z,19.16
2018-05-18T10:36:28.634Z,19.23
2018-05-18T10:37:28.626Z,19.23
2018-05-18T10:38:28.618Z,19.25
2018-05-18T10:39:28.607Z,19.21
2018-05-18T10:40:28.598Z,19.32
2018-05-18T10:41:28.590Z,19.31
2018-05-18T10:42:28.579Z,19.25
2018-05-18T10:43:28.571Z,19.27
2018-05-18T10:44:28.564Z,19.35
2018-05-18T10:45:28.630Z,19.32
2018-05-18T10:46:28.545Z,19.34
2018-05-18T10:47:28.535Z,19.35
2018-05-18T10:48:28.527Z,19.32
2018-05-18T10:49:28.528Z,19.23
2018-05-18T10:50:28.514Z,19.24
2018-05-18T10:51:28.500Z,19.15
2018-05-18T10:52:28.492Z,19.21
2018-05-18T10:53:28.483Z,19.17
2018-05-18T10:54:28.473Z,19.23
2018-05-18T10:55:28.466Z,19.28
2018-05-18T10:56:28.456Z,19.25
2018-05-18T10:57:28.449Z,19.31
2018-05-18T10:58:28.447Z,19.31
2018-05-18T10:59:28.429Z,19.34
2018-05-18T11:00:28.420Z,19.40
2018-05-18T11:01:28.416Z,19.46
2018-05-18T11:02:28.404Z,19.46
2018-05-18T11:03:28.394Z,19.53
2018-05-18T11:04:28.386Z,19.43
2018-05-18T11:05:28.378Z,19.53
2018-05-18T11:06:28.368Z,19.50
2018-05-18T11:07:28.359Z,19.58
2018-05-18T11:08:28.350Z,19.61
2018-05-18T11:09:28.342Z,19.61
2018-05-18T11:10:28.333Z,19.60
2018-05-18T11:11:28.324Z,19.64
2018-05-18T11:12:28.316Z,19.71
2018-05-18T11:13:28.309Z,19.72
2018-05-18T11:14:28.298Z,19.80
2018-05-18T11:15:28.294Z,19.70
2018-05-18T11:16:28.283Z,19.76
2018-05-18T11:17:28.277Z,19.82
2018-05-18T11:18:28.265Z,19.87
2018-05-18T11:19:28.256Z,19.89
2018-05-18T11:20:28.248Z,19.94
2018-05-18T11:21:28.241Z,20.08
2018-05-18T11:22:28.234Z,19.92
2018-05-18T11:23:28.225Z,20.02
2018-05-18T11:24:28.216Z,20.08
2018-05-18T11:25:28.211Z,20.13
2018-05-18T11:26:28.202Z,20.19
2018-05-18T11:27:28.192Z,20.56
2018-05-18T11:28:28.183Z,20.50
2018-05-18T11:29:28.178Z,20.60
2018-05-18T11:30:28.166Z,20.58
2018-05-18T11:31:28.161Z,20.66
2018-05-18T11:32:28.151Z,20.81
2018-05-18T11:33:28.145Z,20.73
2018-05-18T11:34:28.136Z,21.01
2018-05-18T11:35:28.129Z,21.11
2018-05-18T11:36:28.121Z,21.06
2018-05-18T11:37:28.113Z,21.26
2018-05-18T11:38:28.105Z,21.30
2018-05-18T11:39:28.096Z,21.31
2018-05-18T11:40:28.089Z,21.43
2018-05-18T11:41:28.085Z,21.46
2018-05-18T11:42:28.075Z,21.64
2018-05-18T11:43:28.068Z,21.68
2018-05-18T11:44:28.059Z,21.89
2018-05-18T11:45:28.053Z,21.94
2018-05-18T11:46:28.045Z,21.90
2018-05-18T11:47:28.046Z,22.04
2018-05-18T11:48:28.034Z,22.12
2018-05-18T11:49:28.034Z,22.17
2018-05-18T11:50:28.020Z,22.20
2018-05-18T11:51:28.013Z,22.29
2018-05-18T11:52:28.005Z,22.46
2018-05-18T11:53:28.000Z,22.59
2018-05-18T11:54:27.995Z,22.69
2018-05-18T11:55:27.985Z,22.70
2018-05-18T11:56:27.979Z,22.75
2018-05-18T11:57:27.976Z,22.69
2018-05-18T11:58:27.966Z,22.66
2018-05-18T11:59:27.961Z,22.51
2018-05-18T12:00:27.955Z,22.49
2018-05-18T12:01:27.949Z,22.51
2018-05-18T12:02:27.965Z,22.15
2018-05-18T12:03:27.937Z,22.15
2018-05-18T12:04:27.930Z,22.51
2018-05-18T12:05:27.922Z,22.39
2018-05-18T12:06:27.918Z,22.54
2018-05-18T12:07:27.913Z,22.59
2018-05-18T12:08:27.950Z,22.61
2018-05-18T12:09:27.901Z,22.66
2018-05-18T12:10:27.890Z,22.74
2018-05-18T12:11:27.884Z,22.64
2018-05-18T12:12:27.878Z,22.57
2018-05-18T12:13:27.873Z,22.49
2018-05-18T12:14:27.864Z,22.48
2018-05-18T12:15:27.858Z,22.70
2018-05-18T12:16:27.854Z,22.69
2018-05-18T12:17:27.848Z,22.61
2018-05-18T12:18:27.839Z,22.78
2018-05-18T12:19:27.833Z,22.82
2018-05-18T12:20:27.838Z,22.91
2018-05-18T12:21:27.821Z,23.06
2018-05-18T12:22:27.818Z,23.11
2018-05-18T12:23:27.810Z,23.34
2018-05-18T12:24:27.804Z,23.42
2018-05-18T12:25:27.798Z,23.54
2018-05-18T12:26:27.795Z,23.47
2018-05-18T12:27:27.785Z,23.50
2018-05-18T12:28:27.780Z,23.63
2018-05-18T12:29:27.774Z,23.64
2018-05-18T12:30:27.768Z,23.77
2018-05-18T12:31:27.764Z,23.72
2018-05-18T12:32:27.756Z,23.86
2018-05-18T12:33:27.753Z,23.86
2018-05-18T12:34:27.746Z,24.02
2018-05-18T12:35:27.740Z,23.93
2018-05-18T12:36:27.736Z,23.97
2018-05-18T12:37:27.730Z,24.00
2018-05-18T12:38:27.774Z,24.23
2018-05-18T12:39:27.719Z,24.16
2018-05-18T12:40:27.714Z,24.18
2018-05-18T12:41:27.710Z,24.36
2018-05-18T12:42:27.703Z,24.61
2018-05-18T12:43:27.699Z,24.23
2018-05-18T12:44:27.694Z,23.93
2018-05-18T12:45:27.689Z,23.86
2018-05-18T12:46:27.685Z,24.04
2018-05-18T12:47:27.678Z,24.04
2018-05-18T12:48:27.673Z,24.05
2018-05-18T12:49:27.668Z,24.04
2018-05-18T12:50:27.665Z,24.15
2018-05-18T12:51:27.660Z,24.29
2018-05-18T12:52:27.654Z,24.37